sensor_id;sensor_type;location;lat;lon;timestamp;P1;durP1;ratioP1;P2;durP2;ratioP2
28728;SDS011;15894;50.452;30.446;2022-08-01T00:00:36;4.85;;;1.65;;
28728;SDS011;15894;50.452;30.446;2022-08-01T00:03:02;5.50;;;1.90;;
28728;SDS011;15894;50.452;30.446;2022-08-01T00:05:28;4.28;;;2.13;;
28728;SDS011;15894;50.452;30.446;2022-08-01T00:07:54;3.00;;;1.70;;
28728;SDS011;15894;50.452;30.446;2022-08-01T00:10:19;5.53;;;1.60;;
28728;SDS011;15894;50.452;30.446;2022-08-01T00:12:45;6.85;;;1.90;;
28728;SDS011;15894;50.452;30.446;2022-08-01T00:15:14;7.20;;;1.90;;
28728;SDS011;15894;50.452;30.446;2022-08-01T00:17:41;7.40;;;1.60;;
28728;SDS011;15894;50.452;30.446;2022-08-01T00:20:08;4.93;;;1.70;;
28728;SDS011;15894;50.452;30.446;2022-08-01T00:25:00;3.17;;;1.48;;
28728;SDS011;15894;50.452;30.446;2022-08-01T00:27:27;6.18;;;1.70;;
28728;SDS011;15894;50.452;30.446;2022-08-01T00:29:52;7.38;;;1.73;;
28728;SDS011;15894;50.452;30.446;2022-08-01T00:32:18;5.88;;;1.83;;
28728;SDS011;15894;50.452;30.446;2022-08-01T00:34:44;8.32;;;1.92;;
28728;SDS011;15894;50.452;30.446;2022-08-01T00:37:10;5.88;;;1.88;;
28728;SDS011;15894;50.452;30.446;2022-08-01T00:39:35;6.80;;;2.00;;
28728;SDS011;15894;50.452;30.446;2022-08-01T00:42:08;4.97;;;2.00;;
28728;SDS011;15894;50.452;30.446;2022-08-01T00:44:35;6.88;;;1.80;;
28728;SDS011;15894;50.452;30.446;2022-08-01T00:47:01;4.63;;;1.80;;
28728;SDS011;15894;50.452;30.446;2022-08-01T00:49:27;6.28;;;1.98;;
28728;SDS011;15894;50.452;30.446;2022-08-01T00:51:53;7.70;;;2.08;;
28728;SDS011;15894;50.452;30.446;2022-08-01T00:54:19;5.55;;;1.90;;
28728;SDS011;15894;50.452;30.446;2022-08-01T00:56:45;9.30;;;2.00;;
28728;SDS011;15894;50.452;30.446;2022-08-01T00:59:11;9.90;;;1.95;;
28728;SDS011;15894;50.452;30.446;2022-08-01T01:01:38;4.37;;;1.97;;
28728;SDS011;15894;50.452;30.446;2022-08-01T01:04:03;5.93;;;1.95;;
28728;SDS011;15894;50.452;30.446;2022-08-01T01:15:02;8.82;;;2.10;;
28728;SDS011;15894;50.452;30.446;2022-08-01T01:20:06;5.47;;;1.85;;
28728;SDS011;15894;50.452;30.446;2022-08-01T01:28:08;6.22;;;2.10;;
28728;SDS011;15894;50.452;30.446;2022-08-01T01:30:51;7.88;;;2.10;;
28728;SDS011;15894;50.452;30.446;2022-08-01T01:33:21;5.65;;;2.15;;
28728;SDS011;15894;50.452;30.446;2022-08-01T01:35:51;5.30;;;2.03;;
28728;SDS011;15894;50.452;30.446;2022-08-01T01:38:24;7.35;;;2.03;;
28728;SDS011;15894;50.452;30.446;2022-08-01T01:40:53;6.35;;;2.30;;
28728;SDS011;15894;50.452;30.446;2022-08-01T01:45:48;13.13;;;2.30;;
28728;SDS011;15894;50.452;30.446;2022-08-01T01:48:15;10.63;;;2.42;;
28728;SDS011;15894;50.452;30.446;2022-08-01T01:50:44;9.98;;;1.77;;
28728;SDS011;15894;50.452;30.446;2022-08-01T01:53:12;4.75;;;2.30;;
28728;SDS011;15894;50.452;30.446;2022-08-01T01:58:06;8.90;;;2.20;;
28728;SDS011;15894;50.452;30.446;2022-08-01T02:00:33;6.82;;;2.20;;
28728;SDS011;15894;50.452;30.446;2022-08-01T02:03:03;7.17;;;2.50;;
28728;SDS011;15894;50.452;30.446;2022-08-01T02:05:31;6.32;;;2.20;;
28728;SDS011;15894;50.452;30.446;2022-08-01T02:07:59;7.03;;;2.40;;
28728;SDS011;15894;50.452;30.446;2022-08-01T02:10:29;7.78;;;2.65;;
28728;SDS011;15894;50.452;30.446;2022-08-01T02:13:00;5.03;;;2.42;;
28728;SDS011;15894;50.452;30.446;2022-08-01T02:15:28;4.80;;;2.28;;
28728;SDS011;15894;50.452;30.446;2022-08-01T02:17:56;4.68;;;2.42;;
28728;SDS011;15894;50.452;30.446;2022-08-01T02:20:22;7.30;;;2.25;;
28728;SDS011;15894;50.452;30.446;2022-08-01T02:22:51;6.80;;;2.15;;
28728;SDS011;15894;50.452;30.446;2022-08-01T02:25:30;9.35;;;2.72;;
28728;SDS011;15894;50.452;30.446;2022-08-01T02:28:09;4.57;;;2.20;;
28728;SDS011;15894;50.452;30.446;2022-08-01T02:30:39;5.60;;;2.30;;
28728;SDS011;15894;50.452;30.446;2022-08-01T02:33:12;8.05;;;2.13;;
28728;SDS011;15894;50.452;30.446;2022-08-01T02:35:42;9.43;;;2.25;;
28728;SDS011;15894;50.452;30.446;2022-08-01T02:38:11;11.85;;;2.25;;
28728;SDS011;15894;50.452;30.446;2022-08-01T02:40:40;5.25;;;2.22;;
28728;SDS011;15894;50.452;30.446;2022-08-01T02:43:10;8.75;;;2.25;;
28728;SDS011;15894;50.452;30.446;2022-08-01T02:45:39;4.95;;;2.22;;
28728;SDS011;15894;50.452;30.446;2022-08-01T02:48:09;6.75;;;2.30;;
28728;SDS011;15894;50.452;30.446;2022-08-01T02:50:37;8.75;;;2.50;;
28728;SDS011;15894;50.452;30.446;2022-08-01T02:53:06;7.75;;;2.30;;
28728;SDS011;15894;50.452;30.446;2022-08-01T02:55:35;5.88;;;2.22;;
28728;SDS011;15894;50.452;30.446;2022-08-01T02:58:04;6.47;;;2.13;;
28728;SDS011;15894;50.452;30.446;2022-08-01T03:00:31;5.60;;;2.17;;
28728;SDS011;15894;50.452;30.446;2022-08-01T03:02:58;10.15;;;2.30;;
28728;SDS011;15894;50.452;30.446;2022-08-01T03:05:25;10.07;;;2.05;;
28728;SDS011;15894;50.452;30.446;2022-08-01T03:07:52;6.72;;;1.90;;
28728;SDS011;15894;50.452;30.446;2022-08-01T03:10:20;8.18;;;2.25;;
28728;SDS011;15894;50.452;30.446;2022-08-01T03:12:48;4.75;;;2.22;;
28728;SDS011;15894;50.452;30.446;2022-08-01T03:15:15;6.40;;;1.98;;
28728;SDS011;15894;50.452;30.446;2022-08-01T03:17:43;4.88;;;1.77;;
28728;SDS011;15894;50.452;30.446;2022-08-01T03:20:15;9.40;;;2.00;;
28728;SDS011;15894;50.452;30.446;2022-08-01T03:22:43;7.03;;;2.28;;
28728;SDS011;15894;50.452;30.446;2022-08-01T03:25:10;6.05;;;1.70;;
28728;SDS011;15894;50.452;30.446;2022-08-01T03:27:38;5.00;;;1.88;;
28728;SDS011;15894;50.452;30.446;2022-08-01T03:30:06;6.07;;;1.60;;
28728;SDS011;15894;50.452;30.446;2022-08-01T03:32:33;6.10;;;1.83;;
28728;SDS011;15894;50.452;30.446;2022-08-01T03:35:00;8.97;;;2.17;;
28728;SDS011;15894;50.452;30.446;2022-08-01T03:37:27;4.70;;;2.35;;
28728;SDS011;15894;50.452;30.446;2022-08-01T03:40:05;6.38;;;1.70;;
28728;SDS011;15894;50.452;30.446;2022-08-01T03:42:37;7.13;;;2.20;;
28728;SDS011;15894;50.452;30.446;2022-08-01T03:45:10;6.68;;;2.33;;
28728;SDS011;15894;50.452;30.446;2022-08-01T03:47:46;13.80;;;2.33;;
28728;SDS011;15894;50.452;30.446;2022-08-01T03:50:13;8.40;;;2.00;;
28728;SDS011;15894;50.452;30.446;2022-08-01T03:52:43;5.15;;;2.03;;
28728;SDS011;15894;50.452;30.446;2022-08-01T03:55:11;4.57;;;1.65;;
28728;SDS011;15894;50.452;30.446;2022-08-01T03:57:41;6.15;;;2.03;;
28728;SDS011;15894;50.452;30.446;2022-08-01T04:00:09;7.53;;;2.03;;
28728;SDS011;15894;50.452;30.446;2022-08-01T04:02:35;6.13;;;1.90;;
28728;SDS011;15894;50.452;30.446;2022-08-01T04:05:03;8.07;;;1.95;;
28728;SDS011;15894;50.452;30.446;2022-08-01T04:07:30;9.43;;;1.80;;
28728;SDS011;15894;50.452;30.446;2022-08-01T04:12:23;6.68;;;1.55;;
28728;SDS011;15894;50.452;30.446;2022-08-01T04:14:49;7.43;;;2.92;;
28728;SDS011;15894;50.452;30.446;2022-08-01T04:17:15;4.97;;;1.60;;
28728;SDS011;15894;50.452;30.446;2022-08-01T04:19:42;4.78;;;1.50;;
28728;SDS011;15894;50.452;30.446;2022-08-01T04:22:11;4.00;;;1.70;;
28728;SDS011;15894;50.452;30.446;2022-08-01T04:24:39;3.70;;;1.50;;
28728;SDS011;15894;50.452;30.446;2022-08-01T04:29:38;6.18;;;1.33;;
28728;SDS011;15894;50.452;30.446;2022-08-01T04:32:05;6.35;;;1.60;;
28728;SDS011;15894;50.452;30.446;2022-08-01T04:34:34;7.45;;;1.45;;
28728;SDS011;15894;50.452;30.446;2022-08-01T04:37:03;9.95;;;1.70;;
28728;SDS011;15894;50.452;30.446;2022-08-01T04:39:31;6.32;;;1.98;;
28728;SDS011;15894;50.452;30.446;2022-08-01T04:41:58;7.40;;;1.83;;
28728;SDS011;15894;50.452;30.446;2022-08-01T04:44:28;6.07;;;1.45;;
28728;SDS011;15894;50.452;30.446;2022-08-01T04:46:54;7.28;;;1.35;;
28728;SDS011;15894;50.452;30.446;2022-08-01T04:49:21;5.13;;;1.50;;
28728;SDS011;15894;50.452;30.446;2022-08-01T04:51:51;5.78;;;1.50;;
28728;SDS011;15894;50.452;30.446;2022-08-01T04:54:22;4.20;;;1.20;;
28728;SDS011;15894;50.452;30.446;2022-08-01T04:56:52;6.30;;;1.20;;
28728;SDS011;15894;50.452;30.446;2022-08-01T04:59:27;7.15;;;1.92;;
28728;SDS011;15894;50.452;30.446;2022-08-01T05:02:27;4.15;;;1.50;;
28728;SDS011;15894;50.452;30.446;2022-08-01T05:04:54;5.55;;;1.60;;
28728;SDS011;15894;50.452;30.446;2022-08-01T05:07:20;6.57;;;1.60;;
28728;SDS011;15894;50.452;30.446;2022-08-01T05:09:45;4.30;;;1.27;;
28728;SDS011;15894;50.452;30.446;2022-08-01T05:12:11;6.63;;;1.40;;
28728;SDS011;15894;50.452;30.446;2022-08-01T05:14:37;3.70;;;1.40;;
28728;SDS011;15894;50.452;30.446;2022-08-01T05:17:03;6.90;;;1.50;;
28728;SDS011;15894;50.452;30.446;2022-08-01T05:19:31;6.53;;;1.55;;
28728;SDS011;15894;50.452;30.446;2022-08-01T05:21:58;5.35;;;1.80;;
28728;SDS011;15894;50.452;30.446;2022-08-01T05:24:26;6.15;;;1.60;;
28728;SDS011;15894;50.452;30.446;2022-08-01T05:29:19;3.85;;;1.50;;
28728;SDS011;15894;50.452;30.446;2022-08-01T05:31:44;4.45;;;1.50;;
28728;SDS011;15894;50.452;30.446;2022-08-01T05:34:10;4.95;;;1.40;;
28728;SDS011;15894;50.452;30.446;2022-08-01T05:36:36;10.30;;;1.60;;
28728;SDS011;15894;50.452;30.446;2022-08-01T05:39:02;2.97;;;1.15;;
28728;SDS011;15894;50.452;30.446;2022-08-01T05:41:28;5.85;;;1.70;;
28728;SDS011;15894;50.452;30.446;2022-08-01T05:43:54;5.68;;;1.60;;
28728;SDS011;15894;50.452;30.446;2022-08-01T05:46:20;7.82;;;1.70;;
28728;SDS011;15894;50.452;30.446;2022-08-01T05:48:46;6.07;;;1.50;;
28728;SDS011;15894;50.452;30.446;2022-08-01T05:51:11;6.57;;;1.70;;
28728;SDS011;15894;50.452;30.446;2022-08-01T05:53:37;5.80;;;1.60;;
28728;SDS011;15894;50.452;30.446;2022-08-01T05:56:03;8.02;;;1.52;;
28728;SDS011;15894;50.452;30.446;2022-08-01T05:58:28;4.32;;;1.58;;
28728;SDS011;15894;50.452;30.446;2022-08-01T06:00:54;5.68;;;1.77;;
28728;SDS011;15894;50.452;30.446;2022-08-01T06:03:20;8.65;;;2.00;;
28728;SDS011;15894;50.452;30.446;2022-08-01T06:05:46;4.65;;;2.00;;
28728;SDS011;15894;50.452;30.446;2022-08-01T06:08:11;4.53;;;1.90;;
28728;SDS011;15894;50.452;30.446;2022-08-01T06:10:37;5.68;;;2.17;;
28728;SDS011;15894;50.452;30.446;2022-08-01T06:13:03;8.10;;;2.00;;
28728;SDS011;15894;50.452;30.446;2022-08-01T06:15:29;8.18;;;1.73;;
28728;SDS011;15894;50.452;30.446;2022-08-01T06:17:55;10.05;;;2.30;;
28728;SDS011;15894;50.452;30.446;2022-08-01T06:20:21;5.70;;;1.85;;
28728;SDS011;15894;50.452;30.446;2022-08-01T06:22:47;4.13;;;1.73;;
28728;SDS011;15894;50.452;30.446;2022-08-01T06:25:12;5.75;;;1.80;;
28728;SDS011;15894;50.452;30.446;2022-08-01T06:27:38;4.88;;;1.58;;
28728;SDS011;15894;50.452;30.446;2022-08-01T06:30:04;7.38;;;1.90;;
28728;SDS011;15894;50.452;30.446;2022-08-01T06:32:32;8.77;;;1.77;;
28728;SDS011;15894;50.452;30.446;2022-08-01T06:34:58;5.15;;;2.03;;
28728;SDS011;15894;50.452;30.446;2022-08-01T06:37:27;4.60;;;1.77;;
28728;SDS011;15894;50.452;30.446;2022-08-01T06:39:54;8.23;;;2.15;;
28728;SDS011;15894;50.452;30.446;2022-08-01T06:42:20;3.85;;;2.17;;
28728;SDS011;15894;50.452;30.446;2022-08-01T06:44:46;6.28;;;1.90;;
28728;SDS011;15894;50.452;30.446;2022-08-01T06:47:12;10.27;;;2.10;;
28728;SDS011;15894;50.452;30.446;2022-08-01T06:49:37;5.50;;;1.90;;
28728;SDS011;15894;50.452;30.446;2022-08-01T06:52:03;4.50;;;1.90;;
28728;SDS011;15894;50.452;30.446;2022-08-01T06:54:29;11.02;;;2.08;;
28728;SDS011;15894;50.452;30.446;2022-08-01T06:56:54;5.53;;;1.80;;
28728;SDS011;15894;50.452;30.446;2022-08-01T06:59:20;5.25;;;1.95;;
28728;SDS011;15894;50.452;30.446;2022-08-01T07:01:45;7.18;;;2.15;;
28728;SDS011;15894;50.452;30.446;2022-08-01T07:04:11;5.80;;;1.80;;
28728;SDS011;15894;50.452;30.446;2022-08-01T07:06:37;8.10;;;2.00;;
28728;SDS011;15894;50.452;30.446;2022-08-01T07:09:02;8.27;;;1.77;;
28728;SDS011;15894;50.452;30.446;2022-08-01T07:11:28;5.50;;;1.90;;
28728;SDS011;15894;50.452;30.446;2022-08-01T07:13:54;5.28;;;1.80;;
28728;SDS011;15894;50.452;30.446;2022-08-01T07:16:20;4.35;;;1.77;;
28728;SDS011;15894;50.452;30.446;2022-08-01T07:18:45;11.10;;;1.75;;
28728;SDS011;15894;50.452;30.446;2022-08-01T07:21:11;5.03;;;1.75;;
28728;SDS011;15894;50.452;30.446;2022-08-01T07:23:36;5.82;;;1.80;;
28728;SDS011;15894;50.452;30.446;2022-08-01T07:26:03;8.48;;;2.03;;
28728;SDS011;15894;50.452;30.446;2022-08-01T07:28:29;10.25;;;1.90;;
28728;SDS011;15894;50.452;30.446;2022-08-01T07:30:55;8.98;;;1.80;;
28728;SDS011;15894;50.452;30.446;2022-08-01T07:33:21;4.30;;;1.85;;
28728;SDS011;15894;50.452;30.446;2022-08-01T07:35:47;4.03;;;1.85;;
28728;SDS011;15894;50.452;30.446;2022-08-01T07:38:13;3.47;;;1.75;;
28728;SDS011;15894;50.452;30.446;2022-08-01T07:40:40;4.85;;;1.90;;
28728;SDS011;15894;50.452;30.446;2022-08-01T07:43:05;7.05;;;1.77;;
28728;SDS011;15894;50.452;30.446;2022-08-01T07:45:31;6.40;;;1.80;;
28728;SDS011;15894;50.452;30.446;2022-08-01T07:48:01;7.80;;;1.80;;
28728;SDS011;15894;50.452;30.446;2022-08-01T07:50:28;10.35;;;2.03;;
28728;SDS011;15894;50.452;30.446;2022-08-01T07:52:54;5.67;;;2.00;;
28728;SDS011;15894;50.452;30.446;2022-08-01T07:55:20;7.25;;;1.63;;
28728;SDS011;15894;50.452;30.446;2022-08-01T07:57:46;4.78;;;1.50;;
28728;SDS011;15894;50.452;30.446;2022-08-01T08:00:11;4.97;;;1.77;;
28728;SDS011;15894;50.452;30.446;2022-08-01T08:02:38;3.45;;;1.40;;
28728;SDS011;15894;50.452;30.446;2022-08-01T08:05:03;5.53;;;1.60;;
28728;SDS011;15894;50.452;30.446;2022-08-01T08:07:29;3.47;;;1.67;;
28728;SDS011;15894;50.452;30.446;2022-08-01T08:09:55;3.75;;;1.60;;
28728;SDS011;15894;50.452;30.446;2022-08-01T08:12:21;9.43;;;2.00;;
28728;SDS011;15894;50.452;30.446;2022-08-01T08:14:47;4.93;;;1.80;;
28728;SDS011;15894;50.452;30.446;2022-08-01T08:17:12;4.65;;;1.33;;
28728;SDS011;15894;50.452;30.446;2022-08-01T08:19:38;3.92;;;1.63;;
28728;SDS011;15894;50.452;30.446;2022-08-01T08:22:07;6.18;;;2.35;;
28728;SDS011;15894;50.452;30.446;2022-08-01T08:24:34;5.00;;;1.70;;
28728;SDS011;15894;50.452;30.446;2022-08-01T08:27:00;3.83;;;1.75;;
28728;SDS011;15894;50.452;30.446;2022-08-01T08:29:27;4.95;;;2.50;;
28728;SDS011;15894;50.452;30.446;2022-08-01T08:31:57;3.65;;;2.00;;
28728;SDS011;15894;50.452;30.446;2022-08-01T08:34:24;5.57;;;2.00;;
28728;SDS011;15894;50.452;30.446;2022-08-01T08:36:51;6.93;;;1.77;;
28728;SDS011;15894;50.452;30.446;2022-08-01T08:39:17;6.30;;;1.88;;
28728;SDS011;15894;50.452;30.446;2022-08-01T08:41:43;7.55;;;2.10;;
28728;SDS011;15894;50.452;30.446;2022-08-01T08:44:09;5.95;;;1.80;;
28728;SDS011;15894;50.452;30.446;2022-08-01T08:46:40;6.70;;;1.90;;
28728;SDS011;15894;50.452;30.446;2022-08-01T08:49:07;7.57;;;1.92;;
28728;SDS011;15894;50.452;30.446;2022-08-01T08:51:34;6.35;;;2.47;;
28728;SDS011;15894;50.452;30.446;2022-08-01T08:54:03;8.23;;;2.33;;
28728;SDS011;15894;50.452;30.446;2022-08-01T08:56:30;5.53;;;2.08;;
28728;SDS011;15894;50.452;30.446;2022-08-01T08:58:59;3.70;;;2.05;;
28728;SDS011;15894;50.452;30.446;2022-08-01T09:01:25;11.80;;;2.30;;
28728;SDS011;15894;50.452;30.446;2022-08-01T09:03:51;7.97;;;2.10;;
28728;SDS011;15894;50.452;30.446;2022-08-01T09:06:18;5.18;;;2.63;;
28728;SDS011;15894;50.452;30.446;2022-08-01T09:08:43;4.50;;;2.03;;
28728;SDS011;15894;50.452;30.446;2022-08-01T09:11:09;10.35;;;2.42;;
28728;SDS011;15894;50.452;30.446;2022-08-01T09:13:35;6.50;;;2.33;;
28728;SDS011;15894;50.452;30.446;2022-08-01T09:16:01;10.68;;;2.70;;
28728;SDS011;15894;50.452;30.446;2022-08-01T09:18:36;5.55;;;1.98;;
28728;SDS011;15894;50.452;30.446;2022-08-01T09:23:40;7.28;;;2.40;;
28728;SDS011;15894;50.452;30.446;2022-08-01T09:26:09;7.50;;;2.60;;
28728;SDS011;15894;50.452;30.446;2022-08-01T09:28:37;11.20;;;2.67;;
28728;SDS011;15894;50.452;30.446;2022-08-01T09:31:06;20.23;;;2.87;;
28728;SDS011;15894;50.452;30.446;2022-08-01T09:36:50;12.00;;;2.75;;
28728;SDS011;15894;50.452;30.446;2022-08-01T09:39:22;5.30;;;2.53;;
28728;SDS011;15894;50.452;30.446;2022-08-01T09:41:58;7.38;;;2.25;;
28728;SDS011;15894;50.452;30.446;2022-08-01T09:47:12;7.03;;;2.28;;
28728;SDS011;15894;50.452;30.446;2022-08-01T09:49:39;5.40;;;2.13;;
28728;SDS011;15894;50.452;30.446;2022-08-01T09:52:13;9.07;;;2.30;;
28728;SDS011;15894;50.452;30.446;2022-08-01T09:54:38;5.85;;;1.90;;
28728;SDS011;15894;50.452;30.446;2022-08-01T09:59:40;6.03;;;2.20;;
28728;SDS011;15894;50.452;30.446;2022-08-01T10:02:11;7.53;;;2.55;;
28728;SDS011;15894;50.452;30.446;2022-08-01T10:04:49;7.18;;;2.78;;
28728;SDS011;15894;50.452;30.446;2022-08-01T10:07:16;8.82;;;3.15;;
28728;SDS011;15894;50.452;30.446;2022-08-01T10:09:43;4.18;;;2.30;;
28728;SDS011;15894;50.452;30.446;2022-08-01T10:12:10;7.03;;;2.50;;
28728;SDS011;15894;50.452;30.446;2022-08-01T10:14:37;12.88;;;2.75;;
28728;SDS011;15894;50.452;30.446;2022-08-01T10:17:05;6.07;;;2.50;;
28728;SDS011;15894;50.452;30.446;2022-08-01T10:19:33;7.97;;;2.50;;
28728;SDS011;15894;50.452;30.446;2022-08-01T10:22:01;4.32;;;2.30;;
28728;SDS011;15894;50.452;30.446;2022-08-01T10:24:34;6.00;;;2.60;;
28728;SDS011;15894;50.452;30.446;2022-08-01T10:27:03;5.20;;;2.70;;
28728;SDS011;15894;50.452;30.446;2022-08-01T10:29:33;8.55;;;2.75;;
28728;SDS011;15894;50.452;30.446;2022-08-01T10:32:06;10.95;;;3.25;;
28728;SDS011;15894;50.452;30.446;2022-08-01T10:37:00;4.90;;;2.33;;
28728;SDS011;15894;50.452;30.446;2022-08-01T10:39:26;6.32;;;2.70;;
28728;SDS011;15894;50.452;30.446;2022-08-01T10:41:55;5.15;;;2.58;;
28728;SDS011;15894;50.452;30.446;2022-08-01T10:44:21;6.55;;;2.20;;
28728;SDS011;15894;50.452;30.446;2022-08-01T10:46:50;4.97;;;2.38;;
28728;SDS011;15894;50.452;30.446;2022-08-01T10:49:19;6.60;;;2.50;;
28728;SDS011;15894;50.452;30.446;2022-08-01T10:51:47;4.63;;;2.53;;
28728;SDS011;15894;50.452;30.446;2022-08-01T10:54:13;7.70;;;2.50;;
28728;SDS011;15894;50.452;30.446;2022-08-01T10:56:46;4.65;;;2.55;;
28728;SDS011;15894;50.452;30.446;2022-08-01T10:59:24;4.90;;;2.35;;
28728;SDS011;15894;50.452;30.446;2022-08-01T11:04:28;5.38;;;2.42;;
28728;SDS011;15894;50.452;30.446;2022-08-01T11:07:17;4.65;;;2.40;;
28728;SDS011;15894;50.452;30.446;2022-08-01T11:09:45;6.78;;;2.53;;
28728;SDS011;15894;50.452;30.446;2022-08-01T11:12:15;9.50;;;2.75;;
28728;SDS011;15894;50.452;30.446;2022-08-01T11:20:10;5.22;;;2.50;;
28728;SDS011;15894;50.452;30.446;2022-08-01T11:28:17;4.95;;;2.50;;
28728;SDS011;15894;50.452;30.446;2022-08-01T11:30:49;9.32;;;2.92;;
28728;SDS011;15894;50.452;30.446;2022-08-01T11:38:39;6.60;;;2.50;;
28728;SDS011;15894;50.452;30.446;2022-08-01T11:41:13;6.35;;;2.80;;
28728;SDS011;15894;50.452;30.446;2022-08-01T11:49:45;6.53;;;2.83;;
28728;SDS011;15894;50.452;30.446;2022-08-01T11:52:23;9.13;;;2.60;;
28728;SDS011;15894;50.452;30.446;2022-08-01T11:54:53;7.25;;;2.70;;
28728;SDS011;15894;50.452;30.446;2022-08-01T11:57:24;9.55;;;2.88;;
28728;SDS011;15894;50.452;30.446;2022-08-01T11:59:55;4.35;;;2.45;;
28728;SDS011;15894;50.452;30.446;2022-08-01T12:04:53;5.30;;;2.67;;
28728;SDS011;15894;50.452;30.446;2022-08-01T12:09:45;4.75;;;2.92;;
28728;SDS011;15894;50.452;30.446;2022-08-01T12:12:14;6.00;;;2.90;;
28728;SDS011;15894;50.452;30.446;2022-08-01T12:14:42;6.32;;;2.97;;
28728;SDS011;15894;50.452;30.446;2022-08-01T12:17:07;8.35;;;3.00;;
28728;SDS011;15894;50.452;30.446;2022-08-01T12:19:33;5.60;;;2.90;;
28728;SDS011;15894;50.452;30.446;2022-08-01T12:22:08;7.43;;;3.03;;
28728;SDS011;15894;50.452;30.446;2022-08-01T12:24:40;9.57;;;3.10;;
28728;SDS011;15894;50.452;30.446;2022-08-01T12:27:08;8.95;;;3.00;;
28728;SDS011;15894;50.452;30.446;2022-08-01T12:32:18;7.53;;;2.47;;
28728;SDS011;15894;50.452;30.446;2022-08-01T12:34:50;7.88;;;2.90;;
28728;SDS011;15894;50.452;30.446;2022-08-01T12:37:17;7.25;;;3.08;;
28728;SDS011;15894;50.452;30.446;2022-08-01T12:39:43;4.82;;;3.00;;
28728;SDS011;15894;50.452;30.446;2022-08-01T12:42:10;8.63;;;3.00;;
28728;SDS011;15894;50.452;30.446;2022-08-01T12:44:37;13.30;;;2.97;;
28728;SDS011;15894;50.452;30.446;2022-08-01T12:47:05;6.93;;;2.90;;
28728;SDS011;15894;50.452;30.446;2022-08-01T12:49:37;5.18;;;2.80;;
28728;SDS011;15894;50.452;30.446;2022-08-01T12:52:06;7.00;;;2.95;;
28728;SDS011;15894;50.452;30.446;2022-08-01T12:54:59;7.35;;;2.97;;
28728;SDS011;15894;50.452;30.446;2022-08-01T12:57:26;6.85;;;2.42;;
28728;SDS011;15894;50.452;30.446;2022-08-01T13:00:25;6.07;;;2.60;;
28728;SDS011;15894;50.452;30.446;2022-08-01T13:02:50;4.75;;;2.67;;
28728;SDS011;15894;50.452;30.446;2022-08-01T13:05:43;5.53;;;2.45;;
28728;SDS011;15894;50.452;30.446;2022-08-01T13:08:29;6.88;;;2.90;;
28728;SDS011;15894;50.452;30.446;2022-08-01T13:11:16;4.80;;;2.67;;
28728;SDS011;15894;50.452;30.446;2022-08-01T13:13:44;5.30;;;2.88;;
28728;SDS011;15894;50.452;30.446;2022-08-01T13:16:14;9.18;;;2.78;;
28728;SDS011;15894;50.452;30.446;2022-08-01T13:18:47;4.38;;;2.70;;
28728;SDS011;15894;50.452;30.446;2022-08-01T13:26:49;4.93;;;2.60;;
28728;SDS011;15894;50.452;30.446;2022-08-01T13:29:21;5.68;;;2.35;;
28728;SDS011;15894;50.452;30.446;2022-08-01T13:31:54;9.27;;;2.95;;
28728;SDS011;15894;50.452;30.446;2022-08-01T13:34:29;7.25;;;2.67;;
28728;SDS011;15894;50.452;30.446;2022-08-01T13:36:59;3.78;;;2.50;;
28728;SDS011;15894;50.452;30.446;2022-08-01T13:39:26;7.88;;;2.80;;
28728;SDS011;15894;50.452;30.446;2022-08-01T13:42:15;7.03;;;2.40;;
28728;SDS011;15894;50.452;30.446;2022-08-01T13:44:42;4.38;;;2.40;;
28728;SDS011;15894;50.452;30.446;2022-08-01T13:47:10;8.40;;;2.42;;
28728;SDS011;15894;50.452;30.446;2022-08-01T13:49:36;4.95;;;2.40;;
28728;SDS011;15894;50.452;30.446;2022-08-01T13:52:02;6.95;;;2.78;;
28728;SDS011;15894;50.452;30.446;2022-08-01T13:54:30;6.05;;;2.63;;
28728;SDS011;15894;50.452;30.446;2022-08-01T13:56:57;5.55;;;2.33;;
28728;SDS011;15894;50.452;30.446;2022-08-01T13:59:23;8.90;;;2.72;;
28728;SDS011;15894;50.452;30.446;2022-08-01T14:01:49;9.60;;;3.03;;
28728;SDS011;15894;50.452;30.446;2022-08-01T14:04:15;4.47;;;2.75;;
28728;SDS011;15894;50.452;30.446;2022-08-01T14:06:41;6.40;;;2.47;;
28728;SDS011;15894;50.452;30.446;2022-08-01T14:09:07;8.63;;;2.60;;
28728;SDS011;15894;50.452;30.446;2022-08-01T14:11:33;5.75;;;2.17;;
28728;SDS011;15894;50.452;30.446;2022-08-01T14:13:58;8.25;;;3.10;;
28728;SDS011;15894;50.452;30.446;2022-08-01T14:16:24;4.63;;;2.50;;
28728;SDS011;15894;50.452;30.446;2022-08-01T14:18:50;5.25;;;2.33;;
28728;SDS011;15894;50.452;30.446;2022-08-01T14:21:16;5.40;;;2.25;;
28728;SDS011;15894;50.452;30.446;2022-08-01T14:23:41;4.03;;;2.42;;
28728;SDS011;15894;50.452;30.446;2022-08-01T14:26:08;9.25;;;2.80;;
28728;SDS011;15894;50.452;30.446;2022-08-01T14:28:33;6.57;;;2.72;;
28728;SDS011;15894;50.452;30.446;2022-08-01T14:31:00;4.47;;;2.22;;
28728;SDS011;15894;50.452;30.446;2022-08-01T14:33:26;4.68;;;3.00;;
28728;SDS011;15894;50.452;30.446;2022-08-01T14:35:52;5.38;;;2.72;;
28728;SDS011;15894;50.452;30.446;2022-08-01T14:38:17;6.00;;;2.50;;
28728;SDS011;15894;50.452;30.446;2022-08-01T14:40:43;13.32;;;3.28;;
28728;SDS011;15894;50.452;30.446;2022-08-01T14:43:11;4.30;;;2.53;;
28728;SDS011;15894;50.452;30.446;2022-08-01T14:45:37;4.55;;;2.50;;
28728;SDS011;15894;50.452;30.446;2022-08-01T14:48:03;12.00;;;2.60;;
28728;SDS011;15894;50.452;30.446;2022-08-01T14:50:29;7.80;;;2.60;;
28728;SDS011;15894;50.452;30.446;2022-08-01T14:52:55;6.30;;;2.65;;
28728;SDS011;15894;50.452;30.446;2022-08-01T14:55:21;9.38;;;2.75;;
28728;SDS011;15894;50.452;30.446;2022-08-01T14:57:50;5.72;;;2.60;;
28728;SDS011;15894;50.452;30.446;2022-08-01T15:00:16;6.10;;;2.60;;
28728;SDS011;15894;50.452;30.446;2022-08-01T15:02:42;6.90;;;2.72;;
28728;SDS011;15894;50.452;30.446;2022-08-01T15:05:08;4.07;;;2.42;;
28728;SDS011;15894;50.452;30.446;2022-08-01T15:07:35;11.75;;;2.85;;
28728;SDS011;15894;50.452;30.446;2022-08-01T15:10:02;5.75;;;2.90;;
28728;SDS011;15894;50.452;30.446;2022-08-01T15:12:29;5.10;;;2.30;;
28728;SDS011;15894;50.452;30.446;2022-08-01T15:14:54;7.70;;;2.75;;
28728;SDS011;15894;50.452;30.446;2022-08-01T15:17:24;8.15;;;3.45;;
28728;SDS011;15894;50.452;30.446;2022-08-01T15:19:54;8.43;;;3.60;;
28728;SDS011;15894;50.452;30.446;2022-08-01T15:22:21;10.27;;;2.70;;
28728;SDS011;15894;50.452;30.446;2022-08-01T15:24:48;5.65;;;2.80;;
28728;SDS011;15894;50.452;30.446;2022-08-01T15:27:14;5.20;;;2.45;;
28728;SDS011;15894;50.452;30.446;2022-08-01T15:29:41;5.80;;;2.65;;
28728;SDS011;15894;50.452;30.446;2022-08-01T15:32:07;3.95;;;2.70;;
28728;SDS011;15894;50.452;30.446;2022-08-01T15:34:33;6.60;;;2.80;;
28728;SDS011;15894;50.452;30.446;2022-08-01T15:37:03;6.75;;;2.90;;
28728;SDS011;15894;50.452;30.446;2022-08-01T15:39:29;7.45;;;2.65;;
28728;SDS011;15894;50.452;30.446;2022-08-01T15:41:58;4.50;;;2.85;;
28728;SDS011;15894;50.452;30.446;2022-08-01T15:44:24;7.28;;;2.88;;
28728;SDS011;15894;50.452;30.446;2022-08-01T15:46:50;7.07;;;2.70;;
28728;SDS011;15894;50.452;30.446;2022-08-01T15:49:16;6.70;;;3.00;;
28728;SDS011;15894;50.452;30.446;2022-08-01T15:51:43;5.78;;;2.90;;
28728;SDS011;15894;50.452;30.446;2022-08-01T15:54:09;8.55;;;2.70;;
28728;SDS011;15894;50.452;30.446;2022-08-01T15:56:35;8.07;;;2.97;;
28728;SDS011;15894;50.452;30.446;2022-08-01T15:59:02;5.72;;;2.97;;
28728;SDS011;15894;50.452;30.446;2022-08-01T16:01:28;6.75;;;3.15;;